Verifier — MLWN4 — position and weather

sailwx.info

Track history (hours):
 
Tides and Currents Weather Stations Pressure Air Temp Water Temp Dewpoint Dewpoint Depression Visibility Wind Speed Wind Dir Waves Ship Positions

Verifier

Last reported at 2015-Apr-23 15:33 UTC. Time now 2015-May-04 06:01 UTC.
Position N 51°30' E 001°01'.
Warning: this ship's position is 10 days out of date.

Length 21 m; draft 2 m.

Type: Port tender. MMSI: 235000932.

Date/timePositionNaut miles runAvg speedWind from/ knotsBaromVisibWave heightAir tempDewpointWater temp
2015-Apr-23 15:33N 51°30' E 001°01'1110.7
2015-Apr-23 14:31N 51°30' E 001°19'1 0.9
2015-Apr-23 13:33N 51°31' E 001°20'1 1.3
2015-Apr-23 12:31N 51°31' E 001°22'7 7.1
2015-Apr-23 11:33N 51°37' E 001°20'1 1.0
2015-Apr-23 10:33N 51°37' E 001°19'1210.0
2015-Apr-23 09:23N 51°31' E 001°03'8 0.5
2015-Apr-22 16:33N 51°30' E 000°51'1414.1
2015-Apr-22 15:32N 51°32' E 001°14'6 1.3
2015-Apr-22 11:20N 51°32' E 001°05'3 3.5
2015-Apr-22 10:33N 51°32' E 001°00'0 0.3
2015-Apr-22 09:33N 51°32' E 001°01'2 2.0
2015-Apr-22 08:33N 51°32' E 000°58'  
2015-Apr-16 16:17N 51°30' E 000°46'1718.8
2015-Apr-16 15:24N 51°36' E 001°11'910.2
2015-Apr-16 14:33N 51°42' E 001°21'1 0.7
2015-Apr-16 13:33N 51°42' E 001°20'0 0.3
2015-Apr-16 12:33N 51°42' E 001°20'2 1.8
2015-Apr-16 11:33N 51°40' E 001°19'1414.3
2015-Apr-16 10:33N 51°32' E 001°00'0 0.2
2015-Apr-16 09:33N 51°32' E 001°00'8 0.2
2015-Apr-14 12:28N 51°30' E 000°48'6 6.0
2015-Apr-14 11:33N 51°29' E 000°57'1 0.6
2015-Apr-14 10:32N 51°29' E 000°56'1 0.7
2015-Apr-14 09:32N 51°29' E 000°57'  
Track history (hours):
 
Tides and Currents Weather Stations Pressure Air Temp Water Temp Dewpoint Dewpoint Depression Visibility Wind Speed Wind Dir Waves Ship Positions

Verifier

Last reported at 2015-Apr-23 15:33 UTC. Time now 2015-May-04 06:01 UTC.
Position N 51°30' E 001°01'.
Warning: this ship's position is 10 days out of date.

Length 21 m; draft 2 m.

Type: Port tender. MMSI: 235000932.

Date/timePositionNaut miles runAvg speedWind from/ knotsBaromVisibWave heightAir tempDewpointWater temp
2015-Apr-23 15:33N 51°30' E 001°01'1110.7
2015-Apr-23 14:31N 51°30' E 001°19'1 0.9
2015-Apr-23 13:33N 51°31' E 001°20'1 1.3
2015-Apr-23 12:31N 51°31' E 001°22'7 7.1
2015-Apr-23 11:33N 51°37' E 001°20'1 1.0
2015-Apr-23 10:33N 51°37' E 001°19'1210.0
2015-Apr-23 09:23N 51°31' E 001°03'8 0.5
2015-Apr-22 16:33N 51°30' E 000°51'1414.1
2015-Apr-22 15:32N 51°32' E 001°14'6 1.3
2015-Apr-22 11:20N 51°32' E 001°05'3 3.5
2015-Apr-22 10:33N 51°32' E 001°00'0 0.3
2015-Apr-22 09:33N 51°32' E 001°01'2 2.0
2015-Apr-22 08:33N 51°32' E 000°58'  
2015-Apr-16 16:17N 51°30' E 000°46'1718.8
2015-Apr-16 15:24N 51°36' E 001°11'910.2
2015-Apr-16 14:33N 51°42' E 001°21'1 0.7
2015-Apr-16 13:33N 51°42' E 001°20'0 0.3
2015-Apr-16 12:33N 51°42' E 001°20'2 1.8
2015-Apr-16 11:33N 51°40' E 001°19'1414.3
2015-Apr-16 10:33N 51°32' E 001°00'0 0.2
2015-Apr-16 09:33N 51°32' E 001°00'8 0.2
2015-Apr-14 12:28N 51°30' E 000°48'6 6.0
2015-Apr-14 11:33N 51°29' E 000°57'1 0.6
2015-Apr-14 10:32N 51°29' E 000°56'1 0.7
2015-Apr-14 09:32N 51°29' E 000°57'  

Dump ship's entire track history